Time;durP1;ratioP1;P1;durP2;ratioP2;P2;SDS_P1;SDS_P2;PMS_P1;PMS_P2;Temp;Humidity;BMP_temperature;BMP_pressure;BME280_temperature;BME280_humidity;BME280_pressure;Samples;Min_cycle;Max_cycle;Signal;HPM_P1;HPM_P2
2023/06/20 00:00:42;;;;;;;1.02;0.40;;;;;;;;;;5004173;28;20498;-64
2023/06/20 00:03:09;;;;;;;0.50;0.30;;;;;;;;;;5023570;28;20037;-64
2023/06/20 00:05:36;;;;;;;0.43;0.38;;;;;;;;;;5022920;28;20132;-64
2023/06/20 00:08:03;;;;;;;1.02;0.30;;;;;;;;;;5023183;28;20076;-64
2023/06/20 00:10:29;;;;;;;0.35;0.25;;;;;;;;;;5003265;28;20343;-65
2023/06/20 00:12:56;;;;;;;1.00;0.30;;;;;;;;;;5023985;28;20119;-64
2023/06/20 00:15:25;;;;;;;0.55;0.30;;;;;;;;;;5023002;28;20044;-64
2023/06/20 00:17:55;;;;;;;0.57;0.30;;;;;;;;;;5017557;28;20049;-63
2023/06/20 00:20:22;;;;;;;0.43;0.30;;;;;;;;;;5006740;28;20042;-63
2023/06/20 00:22:51;;;;;;;0.20;0.20;;;;;;;;;;5017639;28;20853;-65
2023/06/20 00:25:18;;;;;;;1.35;0.30;;;;;;;;;;5002530;28;20048;-65
2023/06/20 00:27:44;;;;;;;0.20;0.20;;;;;;;;;;5002703;28;20397;-63
2023/06/20 00:30:11;;;;;;;0.30;0.20;;;;;;;;;;5001813;28;20037;-63
2023/06/20 00:32:38;;;;;;;0.25;0.22;;;;;;;;;;5004806;28;20095;-62
2023/06/20 00:35:04;;;;;;;0.20;0.20;;;;;;;;;;5007535;28;20037;-63
2023/06/20 00:37:31;;;;;;;0.20;0.20;;;;;;;;;;5007826;28;23290;-62
2023/06/20 00:39:58;;;;;;;0.43;0.20;;;;;;;;;;5008181;28;20116;-64
2023/06/20 00:42:26;;;;;;;0.32;0.30;;;;;;;;;;4988618;28;20035;-63
2023/06/20 00:44:53;;;;;;;0.20;0.20;;;;;;;;;;5006833;28;20115;-63
2023/06/20 00:47:20;;;;;;;0.30;0.20;;;;;;;;;;4990335;28;20045;-63
2023/06/20 00:49:47;;;;;;;0.57;0.35;;;;;;;;;;5008101;28;20037;-64
2023/06/20 00:52:15;;;;;;;0.40;0.30;;;;;;;;;;5008146;28;20530;-63
2023/06/20 00:54:44;;;;;;;0.93;0.20;;;;;;;;;;5007515;28;20045;-63
2023/06/20 00:57:13;;;;;;;0.25;0.25;;;;;;;;;;5009621;28;21622;-63
2023/06/20 00:59:49;;;;;;;1.10;0.35;;;;;;;;;;5009574;28;20034;-63
2023/06/20 01:02:17;;;;;;;0.30;0.30;;;;;;;;;;4993488;28;20033;-64
2023/06/20 01:04:45;;;;;;;0.20;0.20;;;;;;;;;;5006774;28;20155;-64
2023/06/20 01:07:32;;;;;;;0.30;0.30;;;;;;;;;;5011192;28;20414;-64
2023/06/20 01:10:04;;;;;;;0.20;0.20;;;;;;;;;;5007862;28;20041;-63
2023/06/20 01:12:34;;;;;;;0.38;0.30;;;;;;;;;;5007518;28;20087;-64
2023/06/20 01:15:19;;;;;;;0.20;0.20;;;;;;;;;;5001273;28;20088;-64
2023/06/20 01:17:53;;;;;;;0.50;0.30;;;;;;;;;;4992585;28;21259;-65
2023/06/20 01:20:27;;;;;;;0.45;0.30;;;;;;;;;;4999480;28;20447;-63
2023/06/20 01:23:04;;;;;;;0.25;0.25;;;;;;;;;;5007997;28;20038;-63
2023/06/20 01:25:50;;;;;;;0.47;0.30;;;;;;;;;;5007509;28;21718;-61
2023/06/20 01:28:23;;;;;;;0.35;0.30;;;;;;;;;;5004829;28;20067;-63
2023/06/20 01:30:49;;;;;;;0.30;0.20;;;;;;;;;;5006312;28;20046;-63
2023/06/20 01:33:18;;;;;;;0.20;0.20;;;;;;;;;;5006573;28;20175;-65
2023/06/20 01:35:47;;;;;;;0.20;0.20;;;;;;;;;;4997050;28;20041;-64
2023/06/20 01:38:14;;;;;;;0.28;0.22;;;;;;;;;;5006982;28;20103;-63
2023/06/20 01:40:42;;;;;;;0.20;0.20;;;;;;;;;;5007854;28;20034;-61
2023/06/20 01:43:10;;;;;;;0.20;0.20;;;;;;;;;;5006931;28;20953;-63
2023/06/20 01:45:39;;;;;;;0.40;0.20;;;;;;;;;;5001609;28;20038;-62
2023/06/20 01:48:07;;;;;;;0.30;0.30;;;;;;;;;;5000252;28;20161;-62
2023/06/20 01:50:34;;;;;;;0.20;0.20;;;;;;;;;;5004168;28;20038;-61
2023/06/20 01:53:02;;;;;;;0.20;0.20;;;;;;;;;;5006550;28;20382;-62
2023/06/20 01:55:30;;;;;;;0.68;0.30;;;;;;;;;;5006522;28;20087;-62
2023/06/20 01:57:58;;;;;;;0.35;0.25;;;;;;;;;;5007107;28;21452;-63
2023/06/20 02:00:27;;;;;;;0.77;0.32;;;;;;;;;;5006590;28;20636;-63
2023/06/20 02:02:56;;;;;;;0.20;0.20;;;;;;;;;;5007651;28;20042;-63
2023/06/20 02:05:24;;;;;;;0.25;0.20;;;;;;;;;;5004942;28;20044;-66
2023/06/20 02:07:52;;;;;;;0.30;0.30;;;;;;;;;;5002621;28;20037;-63
2023/06/20 02:10:21;;;;;;;1.52;0.35;;;;;;;;;;4985605;28;20053;-63
2023/06/20 02:12:48;;;;;;;1.08;0.35;;;;;;;;;;4989283;28;20438;-65
2023/06/20 02:15:15;;;;;;;0.38;0.30;;;;;;;;;;4991788;28;20046;-64
2023/06/20 02:17:43;;;;;;;0.35;0.30;;;;;;;;;;5003738;28;20069;-65
2023/06/20 02:20:09;;;;;;;0.20;0.20;;;;;;;;;;5004728;28;20057;-64
2023/06/20 02:22:36;;;;;;;0.20;0.20;;;;;;;;;;5002939;28;20045;-66
2023/06/20 02:25:06;;;;;;;0.20;0.20;;;;;;;;;;4997742;28;20037;-64
2023/06/20 02:27:33;;;;;;;0.22;0.20;;;;;;;;;;5002347;28;20043;-64
2023/06/20 02:30:00;;;;;;;0.52;0.30;;;;;;;;;;5001266;28;20038;-63
2023/06/20 02:32:29;;;;;;;0.20;0.20;;;;;;;;;;5000968;28;20053;-63
2023/06/20 02:34:56;;;;;;;0.20;0.20;;;;;;;;;;5001353;28;20058;-63
2023/06/20 02:37:24;;;;;;;1.75;0.40;;;;;;;;;;5000477;28;20045;-64
2023/06/20 02:39:51;;;;;;;0.30;0.30;;;;;;;;;;5002634;28;20532;-64
2023/06/20 02:42:18;;;;;;;0.38;0.30;;;;;;;;;;5002396;28;20041;-65
2023/06/20 02:44:44;;;;;;;0.20;0.20;;;;;;;;;;5002185;28;20034;-65
2023/06/20 02:47:14;;;;;;;0.32;0.20;;;;;;;;;;4980723;28;20042;-66
2023/06/20 02:50:10;;;;;;;0.30;0.30;;;;;;;;;;5001621;28;20048;-64
2023/06/20 02:52:36;;;;;;;1.25;0.30;;;;;;;;;;4980139;28;20556;-64
2023/06/20 02:55:18;;;;;;;0.20;0.20;;;;;;;;;;5001256;28;20049;-65
2023/06/20 02:57:47;;;;;;;0.20;0.20;;;;;;;;;;5003065;28;20069;-65
2023/06/20 03:00:14;;;;;;;0.30;0.30;;;;;;;;;;5003414;28;20038;-65
2023/06/20 03:02:51;;;;;;;0.20;0.20;;;;;;;;;;5001998;28;20049;-67
2023/06/20 03:05:20;;;;;;;0.55;0.30;;;;;;;;;;5001031;28;22146;-65
2023/06/20 03:07:47;;;;;;;0.20;0.20;;;;;;;;;;4999040;28;21068;-64
2023/06/20 03:10:14;;;;;;;0.30;0.30;;;;;;;;;;5001545;28;20040;-64
2023/06/20 03:12:41;;;;;;;0.20;0.20;;;;;;;;;;4999944;28;20456;-64
2023/06/20 03:15:08;;;;;;;0.38;0.20;;;;;;;;;;4986774;28;20052;-64
2023/06/20 03:17:39;;;;;;;0.30;0.30;;;;;;;;;;5005423;28;20037;-65
2023/06/20 03:20:08;;;;;;;0.63;0.30;;;;;;;;;;4991385;28;20049;-66
2023/06/20 03:22:35;;;;;;;0.50;0.30;;;;;;;;;;5006089;28;20068;-64
2023/06/20 03:25:01;;;;;;;0.20;0.20;;;;;;;;;;5002526;28;20119;-64
2023/06/20 03:27:28;;;;;;;0.35;0.30;;;;;;;;;;5006057;28;20041;-63
2023/06/20 03:29:56;;;;;;;0.20;0.20;;;;;;;;;;5007868;28;20091;-64
2023/06/20 03:32:22;;;;;;;0.52;0.30;;;;;;;;;;4987662;28;20049;-65
2023/06/20 03:34:49;;;;;;;1.98;0.30;;;;;;;;;;5010030;28;20034;-64
2023/06/20 03:37:15;;;;;;;0.25;0.20;;;;;;;;;;4992926;28;20034;-64
2023/06/20 03:39:42;;;;;;;0.20;0.20;;;;;;;;;;4986126;28;20120;-64
2023/06/20 03:42:09;;;;;;;0.57;0.30;;;;;;;;;;5007887;28;20038;-63
2023/06/20 03:44:35;;;;;;;0.25;0.25;;;;;;;;;;5008086;28;20056;-63
2023/06/20 03:47:02;;;;;;;1.30;0.30;;;;;;;;;;5008656;28;20037;-64
2023/06/20 03:49:29;;;;;;;0.20;0.20;;;;;;;;;;5007198;28;20045;-66
2023/06/20 03:51:55;;;;;;;0.73;0.40;;;;;;;;;;5009467;28;20119;-64
2023/06/20 03:54:22;;;;;;;0.32;0.28;;;;;;;;;;5009960;28;20033;-63
2023/06/20 03:56:48;;;;;;;0.25;0.25;;;;;;;;;;5010027;28;20049;-66
2023/06/20 03:59:15;;;;;;;0.30;0.30;;;;;;;;;;5006651;28;20069;-63
2023/06/20 04:01:42;;;;;;;0.30;0.30;;;;;;;;;;5008828;28;20414;-65
2023/06/20 04:04:09;;;;;;;0.30;0.30;;;;;;;;;;5007316;28;20124;-65
2023/06/20 04:06:36;;;;;;;0.25;0.25;;;;;;;;;;4991188;28;20694;-64
2023/06/20 04:09:04;;;;;;;0.30;0.30;;;;;;;;;;5006085;28;20057;-65
2023/06/20 04:11:31;;;;;;;1.30;0.43;;;;;;;;;;5007736;28;20081;-65
2023/06/20 04:13:57;;;;;;;0.57;0.30;;;;;;;;;;5007659;28;20401;-64
2023/06/20 04:16:24;;;;;;;0.65;0.30;;;;;;;;;;5010162;28;20836;-63
2023/06/20 04:18:50;;;;;;;0.38;0.30;;;;;;;;;;4994075;28;20053;-64
2023/06/20 04:21:17;;;;;;;0.80;0.38;;;;;;;;;;5014970;28;20065;-63
2023/06/20 04:23:45;;;;;;;1.17;0.40;;;;;;;;;;5013627;28;20507;-63
2023/06/20 04:26:11;;;;;;;0.47;0.30;;;;;;;;;;5021749;28;20052;-64
2023/06/20 04:28:38;;;;;;;0.65;0.30;;;;;;;;;;5022516;28;20038;-64
2023/06/20 04:31:05;;;;;;;0.50;0.30;;;;;;;;;;5005455;28;20355;-63
2023/06/20 04:33:32;;;;;;;0.75;0.35;;;;;;;;;;5004071;28;20081;-66
2023/06/20 04:35:58;;;;;;;0.22;0.22;;;;;;;;;;5022485;28;20045;-64
2023/06/20 04:38:25;;;;;;;0.35;0.30;;;;;;;;;;5020449;28;20087;-64
2023/06/20 04:40:52;;;;;;;1.80;0.30;;;;;;;;;;5022945;28;20354;-65
2023/06/20 04:43:18;;;;;;;1.42;0.40;;;;;;;;;;5023279;28;21125;-63
2023/06/20 04:45:45;;;;;;;2.03;0.40;;;;;;;;;;5024265;28;20042;-64
2023/06/20 04:48:11;;;;;;;0.55;0.30;;;;;;;;;;5005702;28;20084;-66
2023/06/20 04:50:38;;;;;;;1.02;0.40;;;;;;;;;;5001662;28;20052;-64
2023/06/20 04:53:05;;;;;;;1.13;0.38;;;;;;;;;;5022792;28;20052;-64
2023/06/20 04:55:31;;;;;;;0.98;0.40;;;;;;;;;;5004237;28;20514;-64
2023/06/20 04:57:58;;;;;;;0.63;0.30;;;;;;;;;;5014043;28;20057;-64
2023/06/20 05:00:26;;;;;;;0.90;0.40;;;;;;;;;;5013602;28;20034;-64
2023/06/20 05:02:53;;;;;;;0.30;0.30;;;;;;;;;;5022321;28;20434;-64
2023/06/20 05:05:20;;;;;;;1.00;0.40;;;;;;;;;;5021646;28;20048;-63
2023/06/20 05:07:46;;;;;;;0.47;0.30;;;;;;;;;;5002336;28;20939;-66
2023/06/20 05:10:13;;;;;;;0.90;0.40;;;;;;;;;;5021456;28;20041;-64
2023/06/20 05:12:40;;;;;;;0.68;0.30;;;;;;;;;;5019929;28;20057;-64
2023/06/20 05:15:06;;;;;;;2.65;0.40;;;;;;;;;;5012977;28;20094;-63
2023/06/20 05:17:33;;;;;;;0.77;0.40;;;;;;;;;;5011040;28;20029;-65
2023/06/20 05:20:05;;;;;;;1.80;0.60;;;;;;;;;;5020465;28;20059;-65
2023/06/20 05:22:33;;;;;;;1.43;0.43;;;;;;;;;;5019985;28;20042;-66
2023/06/20 05:25:00;;;;;;;0.80;0.40;;;;;;;;;;5022498;28;20128;-65
2023/06/20 05:27:27;;;;;;;0.40;0.30;;;;;;;;;;5019142;28;20477;-66
2023/06/20 05:29:53;;;;;;;0.38;0.30;;;;;;;;;;5020791;28;20038;-64
2023/06/20 05:32:20;;;;;;;0.90;0.30;;;;;;;;;;5002293;28;20056;-66
2023/06/20 05:34:46;;;;;;;0.65;0.30;;;;;;;;;;5019672;28;20518;-66
2023/06/20 05:37:13;;;;;;;1.00;0.32;;;;;;;;;;5019846;28;20185;-70
2023/06/20 05:39:40;;;;;;;0.45;0.30;;;;;;;;;;5016325;28;20030;-66
2023/06/20 05:42:06;;;;;;;0.43;0.30;;;;;;;;;;5008081;28;20053;-67
2023/06/20 05:44:33;;;;;;;1.05;0.30;;;;;;;;;;5009823;28;20048;-66
2023/06/20 05:46:59;;;;;;;0.30;0.30;;;;;;;;;;5020169;28;20040;-65
2023/06/20 05:49:27;;;;;;;0.70;0.30;;;;;;;;;;4991962;28;20131;-68
2023/06/20 05:51:54;;;;;;;0.75;0.40;;;;;;;;;;4994232;28;20719;-65
2023/06/20 05:54:24;;;;;;;0.30;0.30;;;;;;;;;;5019179;28;20119;-67
2023/06/20 05:56:51;;;;;;;0.60;0.30;;;;;;;;;;5019580;28;20606;-67
2023/06/20 05:59:17;;;;;;;1.45;0.40;;;;;;;;;;4995190;28;20135;-64
2023/06/20 06:01:44;;;;;;;0.32;0.32;;;;;;;;;;5020784;28;21004;-65
2023/06/20 06:04:11;;;;;;;0.30;0.30;;;;;;;;;;5012068;28;20037;-67
2023/06/20 06:06:38;;;;;;;0.30;0.30;;;;;;;;;;5019206;28;20042;-65
2023/06/20 06:09:04;;;;;;;1.27;0.40;;;;;;;;;;5000281;28;20041;-65
2023/06/20 06:11:31;;;;;;;0.47;0.30;;;;;;;;;;5009466;28;20375;-67
2023/06/20 06:13:57;;;;;;;0.70;0.35;;;;;;;;;;5014563;28;20052;-65
2023/06/20 06:16:24;;;;;;;0.30;0.30;;;;;;;;;;5018836;28;20029;-66
2023/06/20 06:18:51;;;;;;;1.67;0.30;;;;;;;;;;5019216;28;20062;-70
2023/06/20 06:21:17;;;;;;;0.57;0.40;;;;;;;;;;5020776;28;20061;-65
2023/06/20 06:23:44;;;;;;;1.25;0.40;;;;;;;;;;5000501;28;20390;-65
2023/06/20 06:26:11;;;;;;;0.88;0.32;;;;;;;;;;5018699;28;20124;-68
2023/06/20 06:28:38;;;;;;;0.82;0.40;;;;;;;;;;5000105;28;20394;-65
2023/06/20 06:31:13;;;;;;;2.30;0.40;;;;;;;;;;5019785;28;20116;-65
2023/06/20 06:33:40;;;;;;;0.43;0.30;;;;;;;;;;5017527;28;20045;-66
2023/06/20 06:36:08;;;;;;;0.20;0.20;;;;;;;;;;5001129;28;20597;-66
2023/06/20 06:38:35;;;;;;;0.50;0.32;;;;;;;;;;5019140;28;20064;-67
2023/06/20 06:41:02;;;;;;;0.47;0.30;;;;;;;;;;5019462;28;20034;-66
2023/06/20 06:43:29;;;;;;;0.47;0.30;;;;;;;;;;5018825;28;20056;-67
2023/06/20 06:45:57;;;;;;;0.22;0.22;;;;;;;;;;5020096;28;20046;-66
2023/06/20 06:48:23;;;;;;;0.85;0.40;;;;;;;;;;5018635;28;20084;-67
2023/06/20 06:50:50;;;;;;;0.63;0.30;;;;;;;;;;5021678;28;20052;-66
2023/06/20 06:53:16;;;;;;;0.20;0.20;;;;;;;;;;5024220;28;20620;-67
2023/06/20 06:55:46;;;;;;;1.55;0.43;;;;;;;;;;5006934;28;20037;-68
2023/06/20 06:58:13;;;;;;;0.20;0.20;;;;;;;;;;5023664;28;20145;-67
2023/06/20 07:00:40;;;;;;;1.83;0.30;;;;;;;;;;5024374;28;20034;-65
2023/06/20 07:03:08;;;;;;;1.65;0.30;;;;;;;;;;5007032;28;20045;-65
2023/06/20 07:05:35;;;;;;;0.20;0.20;;;;;;;;;;5021272;28;20050;-65
2023/06/20 07:08:01;;;;;;;1.88;0.35;;;;;;;;;;5006270;28;20129;-66
2023/06/20 07:10:28;;;;;;;0.40;0.30;;;;;;;;;;5004547;28;20050;-67
2023/06/20 07:12:55;;;;;;;0.30;0.30;;;;;;;;;;5024560;28;20044;-66
2023/06/20 07:15:21;;;;;;;0.28;0.28;;;;;;;;;;5025428;28;20045;-66
2023/06/20 07:17:48;;;;;;;0.20;0.20;;;;;;;;;;5023366;28;20433;-68
2023/06/20 07:20:17;;;;;;;0.88;0.35;;;;;;;;;;5027482;28;20152;-65
2023/06/20 07:22:45;;;;;;;0.25;0.25;;;;;;;;;;5005104;28;20136;-67
2023/06/20 07:25:12;;;;;;;0.40;0.30;;;;;;;;;;5023835;28;20267;-67
2023/06/20 07:27:38;;;;;;;0.35;0.30;;;;;;;;;;5021587;28;20037;-65
2023/06/20 07:30:05;;;;;;;0.43;0.30;;;;;;;;;;5003899;28;20077;-66
2023/06/20 07:32:32;;;;;;;0.90;0.30;;;;;;;;;;5021689;28;20049;-66
2023/06/20 07:34:59;;;;;;;0.30;0.30;;;;;;;;;;5023072;28;20052;-65
2023/06/20 07:37:25;;;;;;;0.35;0.30;;;;;;;;;;5022021;28;20037;-67
2023/06/20 07:39:52;;;;;;;0.28;0.28;;;;;;;;;;5004893;28;20487;-67
2023/06/20 07:42:18;;;;;;;0.52;0.30;;;;;;;;;;5004543;28;20039;-66
2023/06/20 07:44:45;;;;;;;0.30;0.30;;;;;;;;;;5018211;28;20529;-65
2023/06/20 07:47:13;;;;;;;0.30;0.30;;;;;;;;;;5013522;28;20038;-66
2023/06/20 07:49:39;;;;;;;1.75;0.38;;;;;;;;;;5022526;28;20049;-64
2023/06/20 07:52:06;;;;;;;0.80;0.40;;;;;;;;;;5022454;28;20053;-65
2023/06/20 07:54:33;;;;;;;0.65;0.40;;;;;;;;;;5021340;28;20045;-68
2023/06/20 07:57:00;;;;;;;1.10;0.40;;;;;;;;;;5005461;28;20076;-66
2023/06/20 07:59:26;;;;;;;0.70;0.35;;;;;;;;;;5018512;28;20535;-67
2023/06/20 08:01:53;;;;;;;1.60;0.30;;;;;;;;;;5011425;28;20038;-66
2023/06/20 08:04:20;;;;;;;0.32;0.30;;;;;;;;;;5015030;28;20654;-67
2023/06/20 08:06:46;;;;;;;0.30;0.30;;;;;;;;;;5009334;28;20165;-68
2023/06/20 08:09:13;;;;;;;0.68;0.30;;;;;;;;;;5013655;28;20053;-69
2023/06/20 08:11:40;;;;;;;0.22;0.22;;;;;;;;;;5021289;28;20565;-66
2023/06/20 08:14:07;;;;;;;0.60;0.30;;;;;;;;;;5002512;28;20061;-68
2023/06/20 08:16:33;;;;;;;0.30;0.30;;;;;;;;;;4991685;28;20038;-68
2023/06/20 08:19:00;;;;;;;0.70;0.40;;;;;;;;;;5000154;28;20497;-67
2023/06/20 08:21:26;;;;;;;0.30;0.30;;;;;;;;;;4998885;28;20479;-68
2023/06/20 08:23:53;;;;;;;0.30;0.30;;;;;;;;;;4997200;28;20086;-69
2023/06/20 08:26:20;;;;;;;0.20;0.20;;;;;;;;;;4984027;28;20038;-68
2023/06/20 08:28:46;;;;;;;0.30;0.30;;;;;;;;;;5000802;28;20253;-68
2023/06/20 08:31:13;;;;;;;0.28;0.28;;;;;;;;;;5000742;28;20034;-70
2023/06/20 08:33:41;;;;;;;1.05;0.30;;;;;;;;;;4999523;28;20107;-68
2023/06/20 08:36:10;;;;;;;0.30;0.30;;;;;;;;;;5000197;28;20053;-68
2023/06/20 08:38:38;;;;;;;0.38;0.22;;;;;;;;;;4997744;28;20092;-70
2023/06/20 08:41:08;;;;;;;0.20;0.20;;;;;;;;;;5000868;28;20506;-68
2023/06/20 08:43:35;;;;;;;0.20;0.20;;;;;;;;;;5000459;28;20065;-68
2023/06/20 08:46:01;;;;;;;0.75;0.30;;;;;;;;;;5001201;28;20497;-68
2023/06/20 08:48:28;;;;;;;0.20;0.20;;;;;;;;;;4999615;28;20034;-67
2023/06/20 08:50:55;;;;;;;0.68;0.30;;;;;;;;;;5001289;28;20046;-68
2023/06/20 08:53:22;;;;;;;0.28;0.20;;;;;;;;;;4999578;28;20046;-68
2023/06/20 08:55:48;;;;;;;1.45;0.30;;;;;;;;;;5001766;28;20037;-68
2023/06/20 08:58:15;;;;;;;0.52;0.30;;;;;;;;;;4979039;28;20108;-69
2023/06/20 09:00:45;;;;;;;0.43;0.30;;;;;;;;;;4990966;28;20041;-67
2023/06/20 09:03:12;;;;;;;0.20;0.20;;;;;;;;;;4982946;28;20121;-68
2023/06/20 09:05:42;;;;;;;0.95;0.28;;;;;;;;;;5000403;28;20452;-68
2023/06/20 09:08:11;;;;;;;0.30;0.30;;;;;;;;;;4984994;28;20225;-65
2023/06/20 09:10:39;;;;;;;0.43;0.30;;;;;;;;;;5000306;28;20045;-65
2023/06/20 09:13:06;;;;;;;0.47;0.30;;;;;;;;;;5008082;28;20084;-66
2023/06/20 09:15:38;;;;;;;0.30;0.30;;;;;;;;;;5029486;28;20033;-65
2023/06/20 09:18:06;;;;;;;0.30;0.30;;;;;;;;;;5019723;28;20045;-67
2023/06/20 09:20:33;;;;;;;0.68;0.30;;;;;;;;;;5018388;28;20025;-69
2023/06/20 09:23:00;;;;;;;0.60;0.30;;;;;;;;;;5020883;28;20045;-67
2023/06/20 09:25:28;;;;;;;0.60;0.30;;;;;;;;;;5018813;28;20037;-67
2023/06/20 09:27:55;;;;;;;0.93;0.30;;;;;;;;;;5020263;28;20048;-67
2023/06/20 09:30:22;;;;;;;0.75;0.30;;;;;;;;;;5021134;28;20026;-66
2023/06/20 09:32:49;;;;;;;2.28;0.40;;;;;;;;;;5019749;28;20229;-68
2023/06/20 09:35:17;;;;;;;0.60;0.47;;;;;;;;;;5021499;28;20033;-67
2023/06/20 09:37:45;;;;;;;0.70;0.32;;;;;;;;;;5018059;28;20091;-65
2023/06/20 09:40:16;;;;;;;0.60;0.30;;;;;;;;;;5019706;28;20169;-67
2023/06/20 09:42:43;;;;;;;1.83;0.40;;;;;;;;;;5019278;28;20069;-67
2023/06/20 09:45:11;;;;;;;1.27;0.43;;;;;;;;;;5019882;28;20033;-70
2023/06/20 09:47:38;;;;;;;2.72;0.40;;;;;;;;;;5018829;28;21010;-69
2023/06/20 09:50:06;;;;;;;0.43;0.32;;;;;;;;;;5019368;28;20033;-68
2023/06/20 09:52:34;;;;;;;0.52;0.30;;;;;;;;;;5017866;28;20456;-68
2023/06/20 09:55:01;;;;;;;0.70;0.30;;;;;;;;;;5018998;28;20041;-68
2023/06/20 09:57:35;;;;;;;0.30;0.30;;;;;;;;;;5019294;28;20099;-71
2023/06/20 10:00:11;;;;;;;0.25;0.22;;;;;;;;;;5020482;28;20553;-67
2023/06/20 10:02:39;;;;;;;1.55;0.30;;;;;;;;;;5018646;28;20030;-66
2023/06/20 10:05:06;;;;;;;0.30;0.30;;;;;;;;;;5018129;28;20046;-67
2023/06/20 10:07:34;;;;;;;0.43;0.30;;;;;;;;;;5019574;28;20099;-68
2023/06/20 10:10:01;;;;;;;0.20;0.20;;;;;;;;;;5018935;28;20135;-67
2023/06/20 10:12:27;;;;;;;0.52;0.30;;;;;;;;;;5011831;28;20061;-68
2023/06/20 10:14:55;;;;;;;0.75;0.30;;;;;;;;;;5000256;28;20060;-67
2023/06/20 10:17:31;;;;;;;0.30;0.30;;;;;;;;;;4998044;28;20109;-68
2023/06/20 10:19:59;;;;;;;0.30;0.30;;;;;;;;;;5000085;28;20121;-67
2023/06/20 10:22:36;;;;;;;0.47;0.30;;;;;;;;;;4998823;28;20132;-67
2023/06/20 10:25:13;;;;;;;0.45;0.30;;;;;;;;;;5000077;28;20410;-68
2023/06/20 10:27:41;;;;;;;0.30;0.30;;;;;;;;;;4998334;28;20093;-67
2023/06/20 10:30:09;;;;;;;0.90;0.30;;;;;;;;;;4981452;28;20050;-67
2023/06/20 10:32:36;;;;;;;0.30;0.30;;;;;;;;;;4998495;28;20046;-67
2023/06/20 10:35:09;;;;;;;0.30;0.30;;;;;;;;;;4980515;28;20045;-69
2023/06/20 10:37:38;;;;;;;0.28;0.28;;;;;;;;;;5000102;28;20120;-67
2023/06/20 10:40:06;;;;;;;0.30;0.30;;;;;;;;;;5001286;28;20089;-68
2023/06/20 10:42:40;;;;;;;0.28;0.28;;;;;;;;;;4997544;28;20049;-65
2023/06/20 10:45:19;;;;;;;0.75;0.38;;;;;;;;;;4999216;28;20041;-67
2023/06/20 10:47:46;;;;;;;0.30;0.30;;;;;;;;;;4999919;28;20127;-69
2023/06/20 10:50:15;;;;;;;0.38;0.30;;;;;;;;;;4974977;28;20077;-68
2023/06/20 10:52:42;;;;;;;0.30;0.30;;;;;;;;;;4974268;28;20128;-67
2023/06/20 10:55:15;;;;;;;0.35;0.30;;;;;;;;;;5000375;28;20046;-67
2023/06/20 10:57:45;;;;;;;0.30;0.30;;;;;;;;;;4998932;28;20061;-67
2023/06/20 11:00:17;;;;;;;0.32;0.30;;;;;;;;;;4999525;28;20403;-68
2023/06/20 11:02:51;;;;;;;0.75;0.30;;;;;;;;;;4970298;28;20054;-68
2023/06/20 11:05:37;;;;;;;1.43;0.30;;;;;;;;;;4925741;28;21831;-67
2023/06/20 11:08:07;;;;;;;0.30;0.30;;;;;;;;;;4956877;28;20832;-69
2023/06/20 11:10:34;;;;;;;0.30;0.30;;;;;;;;;;4955893;28;20753;-69
2023/06/20 11:13:02;;;;;;;0.30;0.30;;;;;;;;;;4936496;28;20104;-66
2023/06/20 11:15:30;;;;;;;0.30;0.30;;;;;;;;;;4923168;29;20129;-67
2023/06/20 11:17:57;;;;;;;0.30;0.30;;;;;;;;;;4935221;28;20071;-67
2023/06/20 11:20:27;;;;;;;0.30;0.30;;;;;;;;;;4936190;28;20453;-67
2023/06/20 11:22:54;;;;;;;0.40;0.28;;;;;;;;;;4938616;28;20079;-66
2023/06/20 11:25:29;;;;;;;0.30;0.30;;;;;;;;;;4936670;28;20042;-68
2023/06/20 11:27:56;;;;;;;0.30;0.30;;;;;;;;;;4936632;28;20067;-67
2023/06/20 11:30:27;;;;;;;0.30;0.30;;;;;;;;;;4933836;28;20042;-68
2023/06/20 11:33:04;;;;;;;0.30;0.30;;;;;;;;;;4937064;28;20070;-67
2023/06/20 11:35:48;;;;;;;0.40;0.30;;;;;;;;;;4937293;28;20130;-68
2023/06/20 11:38:16;;;;;;;0.25;0.25;;;;;;;;;;4981802;28;20132;-67
2023/06/20 11:40:43;;;;;;;1.25;0.40;;;;;;;;;;4983440;28;20045;-66
2023/06/20 11:43:24;;;;;;;0.45;0.30;;;;;;;;;;4960972;28;20464;-67
2023/06/20 11:45:50;;;;;;;0.30;0.30;;;;;;;;;;4978690;28;20046;-68
2023/06/20 11:48:19;;;;;;;0.35;0.30;;;;;;;;;;5003090;28;21360;-67
2023/06/20 11:50:47;;;;;;;0.80;0.40;;;;;;;;;;5003022;28;20629;-65
2023/06/20 11:53:18;;;;;;;0.30;0.30;;;;;;;;;;4984200;28;20410;-66
2023/06/20 11:55:49;;;;;;;3.25;0.40;;;;;;;;;;5000761;28;20076;-66
2023/06/20 11:58:16;;;;;;;0.20;0.20;;;;;;;;;;5002946;28;20522;-67
2023/06/20 12:00:47;;;;;;;0.85;0.40;;;;;;;;;;4998928;28;20034;-66
2023/06/20 12:03:18;;;;;;;0.30;0.30;;;;;;;;;;5000560;28;20057;-68
2023/06/20 12:05:44;;;;;;;0.57;0.32;;;;;;;;;;4980774;28;20042;-67
2023/06/20 12:08:13;;;;;;;0.30;0.30;;;;;;;;;;4985203;28;20606;-69
2023/06/20 12:11:00;;;;;;;0.70;0.30;;;;;;;;;;4984256;28;20049;-68
2023/06/20 12:13:27;;;;;;;0.77;0.30;;;;;;;;;;5013407;28;20053;-68
2023/06/20 12:15:54;;;;;;;0.52;0.30;;;;;;;;;;5019476;28;20799;-68
2023/06/20 12:18:20;;;;;;;0.30;0.30;;;;;;;;;;5021910;28;20128;-71
2023/06/20 12:20:47;;;;;;;0.55;0.30;;;;;;;;;;5021772;28;20037;-66
2023/06/20 12:23:14;;;;;;;0.38;0.30;;;;;;;;;;5020447;28;20034;-68
2023/06/20 12:25:41;;;;;;;0.57;0.30;;;;;;;;;;5019989;28;20091;-69
2023/06/20 12:28:08;;;;;;;0.30;0.30;;;;;;;;;;5020987;28;20445;-67
2023/06/20 12:30:35;;;;;;;0.30;0.30;;;;;;;;;;5021840;28;20372;-67
2023/06/20 12:33:02;;;;;;;0.38;0.30;;;;;;;;;;5020531;28;20502;-68
2023/06/20 12:35:29;;;;;;;0.40;0.30;;;;;;;;;;5018663;28;20041;-69
2023/06/20 12:37:56;;;;;;;0.45;0.30;;;;;;;;;;5021067;28;20052;-69
2023/06/20 12:40:24;;;;;;;0.52;0.30;;;;;;;;;;5017744;28;20081;-69
2023/06/20 12:42:51;;;;;;;2.08;0.30;;;;;;;;;;5020247;28;20112;-69
2023/06/20 12:45:18;;;;;;;0.65;0.45;;;;;;;;;;5018759;28;20421;-69
2023/06/20 12:47:45;;;;;;;0.40;0.30;;;;;;;;;;5018923;28;20037;-70
2023/06/20 12:50:12;;;;;;;0.30;0.30;;;;;;;;;;5018348;28;20037;-69
2023/06/20 12:52:38;;;;;;;0.47;0.38;;;;;;;;;;5017852;28;20075;-70
2023/06/20 12:55:05;;;;;;;0.90;0.40;;;;;;;;;;5018654;28;20538;-66
2023/06/20 12:57:32;;;;;;;2.00;0.40;;;;;;;;;;5019444;28;20521;-70
2023/06/20 12:59:59;;;;;;;0.47;0.40;;;;;;;;;;5019599;28;20044;-69
2023/06/20 13:02:26;;;;;;;1.23;0.40;;;;;;;;;;5019756;28;21767;-69
2023/06/20 13:04:53;;;;;;;0.47;0.30;;;;;;;;;;5019423;28;20076;-67
2023/06/20 13:07:23;;;;;;;0.40;0.30;;;;;;;;;;5019965;28;20045;-68
2023/06/20 13:09:50;;;;;;;0.73;0.30;;;;;;;;;;5019177;28;20038;-69
2023/06/20 13:12:17;;;;;;;1.55;0.43;;;;;;;;;;5019063;28;20307;-67
2023/06/20 13:14:44;;;;;;;1.27;0.38;;;;;;;;;;5018885;28;20038;-68
2023/06/20 13:17:12;;;;;;;1.67;0.40;;;;;;;;;;5018925;28;20042;-68
2023/06/20 13:19:38;;;;;;;2.65;0.52;;;;;;;;;;5018730;28;20350;-71
2023/06/20 13:22:05;;;;;;;5.78;1.00;;;;;;;;;;5019141;28;20050;-72
2023/06/20 13:24:32;;;;;;;0.40;0.30;;;;;;;;;;5017690;28;20065;-69
2023/06/20 13:26:59;;;;;;;0.80;0.38;;;;;;;;;;5017763;28;20076;-68
2023/06/20 13:29:26;;;;;;;1.40;0.50;;;;;;;;;;5017396;28;20453;-70
2023/06/20 13:31:54;;;;;;;0.38;0.30;;;;;;;;;;5019276;28;20069;-67
2023/06/20 13:34:21;;;;;;;0.45;0.40;;;;;;;;;;5018066;28;20038;-69
2023/06/20 13:36:47;;;;;;;0.90;0.40;;;;;;;;;;5017134;28;20124;-68
2023/06/20 13:39:14;;;;;;;1.25;0.45;;;;;;;;;;5019079;28;20036;-69
2023/06/20 13:41:40;;;;;;;1.52;0.50;;;;;;;;;;5018195;28;20052;-67
2023/06/20 13:44:07;;;;;;;1.30;0.40;;;;;;;;;;5018449;28;20037;-68
2023/06/20 13:46:34;;;;;;;0.73;0.40;;;;;;;;;;5018108;28;20041;-67
2023/06/20 13:49:01;;;;;;;0.45;0.32;;;;;;;;;;5018804;28;20033;-67
2023/06/20 13:51:28;;;;;;;1.75;0.40;;;;;;;;;;5016649;28;20064;-68
2023/06/20 13:53:55;;;;;;;1.10;0.45;;;;;;;;;;5019695;28;20406;-68
2023/06/20 13:56:22;;;;;;;1.15;0.45;;;;;;;;;;5018649;28;20037;-68
2023/06/20 13:58:49;;;;;;;1.67;0.38;;;;;;;;;;5018465;28;20033;-69
2023/06/20 14:01:15;;;;;;;0.63;0.30;;;;;;;;;;5019051;28;20541;-69
2023/06/20 14:03:42;;;;;;;0.52;0.32;;;;;;;;;;5021052;28;20038;-68
2023/06/20 14:06:09;;;;;;;0.52;0.38;;;;;;;;;;5019262;28;20041;-69
2023/06/20 14:08:35;;;;;;;1.40;0.45;;;;;;;;;;5017284;28;20053;-69
2023/06/20 14:11:02;;;;;;;0.45;0.30;;;;;;;;;;5020312;28;20904;-69
2023/06/20 14:13:29;;;;;;;0.40;0.30;;;;;;;;;;5004757;28;20053;-70
2023/06/20 14:15:55;;;;;;;1.05;0.40;;;;;;;;;;4999521;28;20046;-69
2023/06/20 14:18:25;;;;;;;0.40;0.30;;;;;;;;;;4999316;28;20041;-70
2023/06/20 14:20:51;;;;;;;0.73;0.30;;;;;;;;;;5001046;28;20042;-68
2023/06/20 14:23:18;;;;;;;2.35;0.40;;;;;;;;;;4981736;28;20046;-69
2023/06/20 14:25:48;;;;;;;0.60;0.30;;;;;;;;;;4999490;28;20145;-69
2023/06/20 14:28:17;;;;;;;2.00;0.30;;;;;;;;;;5000271;28;20553;-70
2023/06/20 14:30:46;;;;;;;0.55;0.40;;;;;;;;;;4997851;28;20049;-70
2023/06/20 14:33:13;;;;;;;0.43;0.30;;;;;;;;;;4999555;28;20073;-69
2023/06/20 14:35:41;;;;;;;0.70;0.30;;;;;;;;;;4997069;28;20038;-70
2023/06/20 14:38:07;;;;;;;1.83;0.45;;;;;;;;;;4998253;28;20776;-70
2023/06/20 14:40:34;;;;;;;0.30;0.30;;;;;;;;;;4997670;28;20505;-70
2023/06/20 14:43:01;;;;;;;0.88;0.40;;;;;;;;;;4998074;28;20069;-68
2023/06/20 14:45:28;;;;;;;1.95;0.40;;;;;;;;;;4997305;28;20060;-70
2023/06/20 14:47:55;;;;;;;1.58;0.40;;;;;;;;;;4983167;28;20996;-70